Time;durP1;ratioP1;P1;durP2;ratioP2;P2;SDS_P1;SDS_P2;PMS_P1;PMS_P2;Temp;Humidity;BMP_temperature;BMP_pressure;BME280_temperature;BME280_humidity;BME280_pressure;Samples;Min_cycle;Max_cycle;Signal;HPM_P1;HPM_P2
2021/12/19 00:12:30;;;;;;;28.50;13.80;;;4.60;99.90;;;;;;10292119;28;20039;-83
2021/12/19 00:17:31;;;;;;;17.63;9.37;;;4.60;99.90;;;;;;10291657;28;20038;-83
2021/12/19 00:22:32;;;;;;;19.37;9.80;;;4.70;99.90;;;;;;10292619;28;20069;-83
2021/12/19 00:27:33;;;;;;;15.47;8.53;;;4.70;99.90;;;;;;10291857;28;20860;-84
2021/12/19 00:32:33;;;;;;;12.50;7.10;;;4.70;99.90;;;;;;10292024;28;20037;-82
2021/12/19 00:37:34;;;;;;;10.63;6.77;;;4.70;99.90;;;;;;10290915;28;20027;-83
2021/12/19 00:42:37;;;;;;;13.10;6.93;;;4.70;99.90;;;;;;10291357;28;20086;-85
2021/12/19 00:47:37;;;;;;;10.73;6.40;;;4.60;99.90;;;;;;10290752;28;20047;-84
2021/12/19 00:52:38;;;;;;;8.23;5.30;;;4.60;99.90;;;;;;10291820;28;20422;-84
2021/12/19 00:57:39;;;;;;;10.23;6.47;;;4.60;99.90;;;;;;10291467;28;20039;-84
2021/12/19 01:02:39;;;;;;;14.67;9.10;;;4.60;99.90;;;;;;10289823;28;20541;-84
2021/12/19 01:07:40;;;;;;;19.73;10.10;;;4.60;99.90;;;;;;10290221;28;20073;-85
2021/12/19 01:12:41;;;;;;;19.57;10.30;;;4.60;99.90;;;;;;10291000;28;20118;-85
2021/12/19 01:17:42;;;;;;;23.63;12.37;;;4.60;99.90;;;;;;10289807;28;20471;-86
2021/12/19 01:22:43;;;;;;;20.50;11.07;;;4.60;99.90;;;;;;10289810;28;20035;-85
2021/12/19 01:27:44;;;;;;;23.50;12.90;;;4.60;99.90;;;;;;10289694;28;20043;-84
2021/12/19 01:32:46;;;;;;;18.03;10.83;;;4.60;99.90;;;;;;10289667;28;20368;-86
2021/12/19 01:37:47;;;;;;;21.10;11.80;;;4.60;99.90;;;;;;10288112;28;20034;-84
2021/12/19 01:42:50;;;;;;;14.80;8.23;;;4.70;99.90;;;;;;10288913;28;20043;-85
2021/12/19 01:47:51;;;;;;;27.73;13.17;;;4.70;99.90;;;;;;10288709;28;20042;-85
2021/12/19 01:52:52;;;;;;;34.33;18.30;;;4.70;99.90;;;;;;10289330;28;20062;-85
2021/12/19 01:57:53;;;;;;;34.63;17.20;;;4.70;99.90;;;;;;10288364;28;20042;-84
2021/12/19 02:02:55;;;;;;;16.63;10.03;;;4.70;99.90;;;;;;10270450;28;20081;-86
2021/12/19 02:07:58;;;;;;;20.17;10.53;;;4.70;99.90;;;;;;10288050;28;20061;-85
2021/12/19 02:13:02;;;;;;;14.27;8.13;;;4.70;99.90;;;;;;10288289;28;20093;-84
2021/12/19 02:18:15;;;;;;;10.40;6.37;;;4.80;99.90;;;;;;10287689;28;20038;-84
2021/12/19 02:23:17;;;;;;;12.93;6.80;;;4.80;99.90;;;;;;10287354;28;20118;-86
2021/12/19 02:28:18;;;;;;;19.20;10.63;;;4.80;99.90;;;;;;10276058;28;20042;-85
2021/12/19 02:33:23;;;;;;;25.60;12.97;;;4.80;99.90;;;;;;10286501;28;20088;-84
2021/12/19 02:39:15;;;;;;;28.57;14.87;;;4.70;99.90;;;;;;10287044;28;20518;-85
2021/12/19 02:49:15;;;;;;;29.83;16.00;;;4.60;99.90;;;;;;10285981;28;20059;-84
2021/12/19 02:54:16;;;;;;;32.53;17.93;;;4.60;99.90;;;;;;10286538;28;20027;-85
2021/12/19 02:59:17;;;;;;;34.60;17.53;;;4.60;99.90;;;;;;10268855;28;20034;-84
2021/12/19 03:04:17;;;;;;;40.40;21.10;;;4.60;99.90;;;;;;10286292;28;20039;-84
2021/12/19 03:20:01;;;;;;;40.63;19.83;;;4.50;99.90;;;;;;10286924;28;20038;-84
2021/12/19 03:25:01;;;;;;;34.90;17.20;;;4.50;99.90;;;;;;10285393;28;20066;-85
2021/12/19 03:30:04;;;;;;;38.73;18.63;;;4.50;99.90;;;;;;10285872;28;20090;-85
2021/12/19 03:35:06;;;;;;;35.67;17.17;;;4.50;99.90;;;;;;10273363;28;20038;-85
2021/12/19 03:40:11;;;;;;;34.50;18.27;;;4.40;99.90;;;;;;10293661;28;20418;-87
2021/12/19 03:45:17;;;;;;;44.93;19.43;;;4.40;99.90;;;;;;10293195;28;20113;-85
2021/12/19 03:50:22;;;;;;;42.50;19.60;;;4.40;99.90;;;;;;10293195;28;20479;-85
2021/12/19 03:55:24;;;;;;;49.43;21.60;;;4.30;99.90;;;;;;10275897;28;20035;-85
2021/12/19 04:00:27;;;;;;;41.53;19.50;;;4.30;99.90;;;;;;10292702;28;20038;-84
2021/12/19 04:05:28;;;;;;;47.80;20.67;;;4.30;99.90;;;;;;10291032;28;20481;-84
2021/12/19 04:10:29;;;;;;;48.43;22.30;;;4.30;99.90;;;;;;10292368;28;20042;-86
2021/12/19 04:15:30;;;;;;;43.80;20.90;;;4.30;99.90;;;;;;10291592;28;20034;-86
2021/12/19 04:20:30;;;;;;;52.50;22.77;;;4.30;99.90;;;;;;10292151;28;20031;-84
2021/12/19 04:25:31;;;;;;;56.07;25.53;;;4.30;99.90;;;;;;10274945;28;20525;-84
2021/12/19 04:30:32;;;;;;;56.63;26.60;;;4.30;99.90;;;;;;10291573;28;20026;-86
2021/12/19 04:35:35;;;;;;;57.97;27.93;;;4.30;99.90;;;;;;10290894;28;20097;-84
2021/12/19 04:51:43;;;;;;;58.63;28.40;;;4.40;99.90;;;;;;10290848;28;20094;-86
2021/12/19 04:57:03;;;;;;;58.93;26.37;;;4.30;99.90;;;;;;10285593;28;20546;-84
2021/12/19 05:02:12;;;;;;;55.77;27.87;;;4.40;99.90;;;;;;10289674;28;20058;-86
2021/12/19 05:17:59;;;;;;;53.80;24.97;;;4.40;99.90;;;;;;10288742;28;20039;-87
2021/12/19 05:23:09;;;;;;;62.67;30.20;;;4.40;99.90;;;;;;10288816;28;20086;-87
2021/12/19 05:28:10;;;;;;;53.80;23.60;;;4.40;99.90;;;;;;10267331;28;20053;-86
2021/12/19 05:33:11;;;;;;;49.30;23.50;;;4.50;99.90;;;;;;10286366;28;20506;-88
2021/12/19 05:48:50;;;;;;;38.70;21.30;;;4.50;99.90;;;;;;10288974;28;20394;-87
2021/12/19 05:53:50;;;;;;;37.93;19.37;;;4.50;99.90;;;;;;10289185;28;20030;-87
2021/12/19 05:58:51;;;;;;;48.37;24.37;;;4.50;99.90;;;;;;10269925;28;20042;-87
2021/12/19 06:03:52;;;;;;;41.40;20.73;;;4.60;99.90;;;;;;10269032;28;20043;-86
2021/12/19 06:08:53;;;;;;;35.83;20.20;;;4.60;99.90;;;;;;10245671;28;20034;-86
2021/12/19 06:13:54;;;;;;;43.73;21.93;;;4.70;99.90;;;;;;10288174;28;20101;-86
2021/12/19 06:18:55;;;;;;;31.80;17.43;;;4.70;99.90;;;;;;10288742;28;20066;-85
2021/12/19 06:23:55;;;;;;;35.60;18.47;;;4.70;99.90;;;;;;10287655;28;20049;-86
2021/12/19 06:28:56;;;;;;;33.07;16.83;;;4.80;99.90;;;;;;10287759;28;20034;-86
2021/12/19 06:33:57;;;;;;;33.63;15.60;;;4.80;99.90;;;;;;10287366;28;20110;-87
2021/12/19 06:38:58;;;;;;;46.03;22.80;;;4.90;99.90;;;;;;10288013;28;20057;-86
2021/12/19 06:43:58;;;;;;;37.23;20.37;;;4.90;99.90;;;;;;10287451;28;20058;-86
2021/12/19 06:48:59;;;;;;;48.97;23.23;;;5.00;99.90;;;;;;10269114;28;20097;-86
2021/12/19 06:54:00;;;;;;;25.50;13.30;;;5.10;99.90;;;;;;10287066;28;20038;-86
2021/12/19 06:59:01;;;;;;;28.23;13.57;;;5.10;99.90;;;;;;10269711;28;20058;-87
2021/12/19 07:04:01;;;;;;;22.13;11.90;;;5.10;99.90;;;;;;10268176;28;20062;-87
2021/12/19 07:09:02;;;;;;;15.50;8.20;;;5.10;99.90;;;;;;10256295;28;20086;-85
2021/12/19 07:14:03;;;;;;;22.77;9.47;;;5.10;99.90;;;;;;10259093;28;20031;-85
2021/12/19 07:19:10;;;;;;;22.13;10.83;;;5.20;99.90;;;;;;10277921;28;20062;-90
2021/12/19 07:24:11;;;;;;;28.13;15.40;;;5.20;99.90;;;;;;10272686;28;20388;-86
2021/12/19 07:29:11;;;;;;;16.53;8.73;;;5.20;99.90;;;;;;10277052;28;20034;-84
2021/12/19 07:34:12;;;;;;;23.30;10.53;;;5.20;99.90;;;;;;10299700;28;20038;-87
2021/12/19 07:39:25;;;;;;;19.13;9.60;;;5.20;99.90;;;;;;10299027;28;20453;-84
2021/12/19 07:44:26;;;;;;;16.93;8.37;;;5.20;99.90;;;;;;10293366;28;20589;-84
2021/12/19 07:49:27;;;;;;;16.77;7.37;;;5.20;99.90;;;;;;10259063;28;20101;-87
2021/12/19 07:54:28;;;;;;;20.97;9.67;;;5.10;99.90;;;;;;10264053;28;20082;-88
2021/12/19 07:59:29;;;;;;;18.67;8.93;;;5.10;99.90;;;;;;10257864;28;20066;-86
2021/12/19 08:04:30;;;;;;;23.57;9.50;;;5.10;99.90;;;;;;10261238;28;20039;-89
2021/12/19 08:09:41;;;;;;;20.03;8.77;;;5.00;99.90;;;;;;10270920;28;20038;-85
2021/12/19 08:14:41;;;;;;;20.17;10.40;;;4.90;99.90;;;;;;10268825;28;20089;-88
2021/12/19 08:19:42;;;;;;;27.17;12.97;;;4.90;99.90;;;;;;10295118;28;20057;-88
2021/12/19 08:24:45;;;;;;;21.63;10.30;;;4.80;99.90;;;;;;10291880;28;20042;-87
2021/12/19 08:29:49;;;;;;;17.20;7.80;;;4.80;99.90;;;;;;10292600;28;20049;-87
2021/12/19 08:34:50;;;;;;;13.23;8.13;;;4.70;99.90;;;;;;10274444;28;20538;-88
2021/12/19 08:39:51;;;;;;;22.80;11.03;;;4.70;99.90;;;;;;10292394;28;20149;-88
2021/12/19 08:44:51;;;;;;;21.87;11.10;;;4.70;99.90;;;;;;10292173;28;20030;-88
2021/12/19 08:49:52;;;;;;;25.87;11.27;;;4.70;99.90;;;;;;10291592;28;20454;-88
2021/12/19 08:54:53;;;;;;;23.60;10.67;;;4.70;99.90;;;;;;10291184;28;20395;-88
2021/12/19 08:59:54;;;;;;;28.57;14.03;;;4.70;99.90;;;;;;10291298;28;20046;-87
2021/12/19 09:04:54;;;;;;;37.67;17.97;;;4.70;99.90;;;;;;10273957;28;20513;-87
2021/12/19 09:09:55;;;;;;;24.10;11.13;;;4.80;99.90;;;;;;10273873;28;20033;-87
2021/12/19 09:14:56;;;;;;;29.17;10.43;;;4.80;99.90;;;;;;10272789;28;20027;-88
2021/12/19 09:19:57;;;;;;;20.27;9.40;;;4.80;99.90;;;;;;10272937;28;20027;-87
2021/12/19 09:24:58;;;;;;;17.30;8.20;;;4.80;99.90;;;;;;10272545;28;20049;-88
2021/12/19 09:29:58;;;;;;;21.37;10.60;;;4.80;99.90;;;;;;10289315;28;20019;-88
2021/12/19 09:34:59;;;;;;;26.77;13.30;;;4.80;99.90;;;;;;10289806;28;20118;-88
2021/12/19 09:40:02;;;;;;;26.00;11.97;;;4.90;99.90;;;;;;10289372;28;20027;-89
2021/12/19 09:45:04;;;;;;;24.80;12.10;;;4.90;99.90;;;;;;10286328;28;20035;-88
2021/12/19 09:50:07;;;;;;;28.83;11.80;;;5.00;99.90;;;;;;10251675;28;20070;-86
2021/12/19 09:55:08;;;;;;;16.57;7.47;;;5.00;99.90;;;;;;10287132;28;20066;-85
2021/12/19 10:00:09;;;;;;;14.33;7.07;;;5.00;99.90;;;;;;10286185;28;20450;-85
2021/12/19 10:05:28;;;;;;;19.93;8.87;;;5.00;99.90;;;;;;10286797;28;20042;-86
2021/12/19 10:11:03;;;;;;;15.50;7.07;;;5.00;99.90;;;;;;10286396;28;20046;-88
2021/12/19 10:16:24;;;;;;;14.07;6.83;;;5.00;99.90;;;;;;10267080;28;20034;-87
2021/12/19 10:21:27;;;;;;;13.83;6.73;;;5.00;99.90;;;;;;10282329;28;20086;-85
2021/12/19 10:26:49;;;;;;;14.67;7.67;;;5.10;99.90;;;;;;10281676;28;20035;-87
2021/12/19 10:32:04;;;;;;;16.67;8.47;;;5.00;99.90;;;;;;10286023;28;20034;-88
2021/12/19 10:37:05;;;;;;;14.63;5.80;;;5.10;99.90;;;;;;10278917;28;20035;-86
2021/12/19 10:42:59;;;;;;;8.03;4.93;;;5.10;99.90;;;;;;10266682;28;20467;-89
2021/12/19 11:00:24;;;;;;;11.97;5.20;;;4.80;99.90;;;;;;10309078;28;20438;-90
2021/12/19 11:11:52;;;;;;;8.93;4.37;;;4.90;99.90;;;;;;10279003;28;20034;-83
2021/12/19 11:17:22;;;;;;;10.80;4.83;;;4.90;99.90;;;;;;10262139;28;20047;-84
2021/12/19 11:22:28;;;;;;;12.80;6.93;;;4.90;99.90;;;;;;10279909;28;20043;-82
2021/12/19 11:27:30;;;;;;;20.40;6.73;;;4.90;99.90;;;;;;10259954;28;20501;-86
2021/12/19 11:33:03;;;;;;;12.13;5.47;;;4.90;99.90;;;;;;10284523;28;20085;-87
2021/12/19 11:38:10;;;;;;;12.43;4.60;;;4.90;99.90;;;;;;10270011;28;20092;-84
2021/12/19 11:43:13;;;;;;;11.13;5.10;;;4.90;99.90;;;;;;10285289;28;20038;-84
2021/12/19 11:48:18;;;;;;;13.60;6.43;;;5.00;99.90;;;;;;10274835;28;20037;-85
2021/12/19 11:53:35;;;;;;;8.95;3.60;;;4.90;99.90;;;;;;10285046;28;20098;-85
2021/12/19 11:58:44;;;;;;;8.33;4.30;;;4.90;99.90;;;;;;10290554;28;20023;-87
2021/12/19 12:03:56;;;;;;;6.70;3.53;;;4.90;99.90;;;;;;10292068;28;20034;-85
2021/12/19 12:09:32;;;;;;;5.97;3.33;;;4.80;99.90;;;;;;10294351;28;20026;-87
2021/12/19 12:14:36;;;;;;;9.15;4.20;;;4.80;99.90;;;;;;10279493;28;20073;-86
2021/12/19 12:19:42;;;;;;;7.53;3.60;;;4.90;99.90;;;;;;10291045;28;20070;-88
2021/12/19 12:25:03;;;;;;;5.13;2.67;;;4.80;99.90;;;;;;10275121;28;20137;-86
2021/12/19 12:30:09;;;;;;;12.43;5.40;;;4.80;99.90;;;;;;10291255;28;20066;-88
2021/12/19 12:35:12;;;;;;;7.30;3.43;;;4.80;99.90;;;;;;10274444;28;20027;-87
2021/12/19 12:40:31;;;;;;;3.77;1.90;;;4.80;99.90;;;;;;10269366;28;20041;-86
2021/12/19 12:45:57;;;;;;;2.63;1.80;;;4.80;99.90;;;;;;10291406;28;20529;-84
2021/12/19 12:51:00;;;;;;;9.67;5.03;;;4.80;99.90;;;;;;10291135;28;20442;-86
2021/12/19 12:56:12;;;;;;;6.83;4.33;;;4.70;99.90;;;;;;10273863;28;20022;-86
2021/12/19 13:01:16;;;;;;;10.53;4.70;;;4.70;99.90;;;;;;10291805;28;20041;-87
2021/12/19 13:06:37;;;;;;;11.50;5.47;;;4.70;99.90;;;;;;10290412;28;20782;-86
2021/12/19 13:11:38;;;;;;;12.53;5.77;;;4.70;99.90;;;;;;10289740;28;20034;-86
2021/12/19 13:17:10;;;;;;;11.03;5.60;;;4.60;99.90;;;;;;10289769;28;20035;-86
2021/12/19 13:22:18;;;;;;;12.03;6.27;;;4.50;99.90;;;;;;10278260;28;20043;-88
2021/12/19 13:27:41;;;;;;;9.73;5.97;;;4.40;99.90;;;;;;10251178;28;20491;-87
2021/12/19 13:32:52;;;;;;;11.93;6.53;;;4.40;99.90;;;;;;10254570;28;20543;-84
2021/12/19 13:38:16;;;;;;;14.53;7.53;;;4.30;99.90;;;;;;10256317;28;20023;-87
2021/12/19 13:43:24;;;;;;;15.83;7.00;;;4.30;99.90;;;;;;10248979;28;20053;-86
2021/12/19 13:48:36;;;;;;;16.43;7.77;;;4.30;99.90;;;;;;10261448;28;20086;-83
2021/12/19 13:53:40;;;;;;;11.77;4.87;;;4.30;99.90;;;;;;10275999;28;20102;-84
2021/12/19 13:58:50;;;;;;;10.37;4.93;;;4.30;99.90;;;;;;10279267;28;20046;-85
2021/12/19 14:03:57;;;;;;;12.33;6.00;;;4.20;99.90;;;;;;10287334;28;20039;-86
2021/12/19 14:09:04;;;;;;;15.33;7.77;;;4.20;99.90;;;;;;10283631;28;20027;-87
2021/12/19 14:14:31;;;;;;;24.03;10.27;;;4.20;99.90;;;;;;10285173;28;20553;-85
2021/12/19 14:19:36;;;;;;;15.37;8.00;;;4.20;99.90;;;;;;10284072;28;20030;-84
2021/12/19 14:24:41;;;;;;;17.53;6.83;;;4.20;99.90;;;;;;10285716;28;20074;-85
2021/12/19 14:30:04;;;;;;;12.23;5.57;;;4.20;99.90;;;;;;10286293;28;20038;-84
2021/12/19 14:35:26;;;;;;;39.90;18.87;;;4.20;99.90;;;;;;10286125;28;20050;-83
2021/12/19 14:40:30;;;;;;;82.07;35.80;;;4.10;99.90;;;;;;10287353;28;20493;-83
2021/12/19 14:45:35;;;;;;;73.67;34.63;;;4.10;99.90;;;;;;10286067;28;20537;-84
2021/12/19 14:50:59;;;;;;;45.03;21.77;;;4.20;99.90;;;;;;10286308;28;20564;-85
2021/12/19 14:56:06;;;;;;;47.17;23.00;;;4.20;99.90;;;;;;10286937;28;20541;-84
2021/12/19 15:01:10;;;;;;;37.70;17.27;;;4.20;99.90;;;;;;10286200;28;20030;-83
2021/12/19 15:06:12;;;;;;;24.17;11.10;;;4.20;99.90;;;;;;10286449;28;20039;-85
2021/12/19 15:11:13;;;;;;;23.87;11.37;;;4.10;99.90;;;;;;10284671;28;20125;-83
2021/12/19 15:16:14;;;;;;;19.93;9.60;;;4.20;99.90;;;;;;10281959;28;20033;-85
2021/12/19 15:21:15;;;;;;;17.90;7.50;;;4.20;99.90;;;;;;10284346;28;20039;-83
2021/12/19 15:26:15;;;;;;;12.63;6.27;;;4.10;99.90;;;;;;10268429;28;20189;-82
2021/12/19 15:31:20;;;;;;;13.30;5.50;;;4.10;99.90;;;;;;10292179;28;20030;-83
2021/12/19 15:36:21;;;;;;;14.97;7.10;;;4.10;99.90;;;;;;10289759;28;20114;-85
2021/12/19 15:41:22;;;;;;;12.30;5.80;;;4.00;99.90;;;;;;10293424;28;20106;-81
2021/12/19 15:46:24;;;;;;;17.47;7.10;;;4.00;99.90;;;;;;10293961;28;20717;-82
2021/12/19 15:51:25;;;;;;;12.17;6.37;;;4.00;99.90;;;;;;10292554;28;20047;-80
2021/12/19 15:56:25;;;;;;;18.17;7.60;;;4.00;99.90;;;;;;10291666;28;20031;-82
2021/12/19 16:01:26;;;;;;;19.60;7.37;;;4.00;99.90;;;;;;10292748;28;20517;-84
2021/12/19 16:06:29;;;;;;;14.50;7.10;;;4.00;99.90;;;;;;10293215;28;20590;-86
2021/12/19 16:11:29;;;;;;;12.57;5.97;;;4.10;99.90;;;;;;10292560;28;20042;-83
2021/12/19 16:16:30;;;;;;;11.70;5.67;;;4.10;99.90;;;;;;10291617;28;20049;-84
2021/12/19 16:21:31;;;;;;;12.70;5.33;;;4.10;99.90;;;;;;10292137;28;20097;-85
2021/12/19 16:26:32;;;;;;;13.57;4.83;;;4.10;99.90;;;;;;10292671;28;20559;-86
2021/12/19 16:31:33;;;;;;;11.63;5.80;;;4.00;99.90;;;;;;10290948;28;20097;-84
2021/12/19 16:36:35;;;;;;;7.87;3.93;;;4.10;99.90;;;;;;10290411;28;20034;-83
2021/12/19 16:41:47;;;;;;;10.60;5.97;;;4.00;99.90;;;;;;10290521;28;20026;-84
2021/12/19 16:46:50;;;;;;;14.07;5.63;;;4.00;99.90;;;;;;10284361;28;20044;-82
2021/12/19 16:51:51;;;;;;;11.37;5.50;;;4.00;99.90;;;;;;10290642;28;20050;-83
2021/12/19 16:56:53;;;;;;;34.47;12.67;;;4.00;99.90;;;;;;10288889;28;20450;-82
2021/12/19 17:01:54;;;;;;;23.07;8.33;;;3.90;99.90;;;;;;10289585;28;20426;-84
2021/12/19 17:06:56;;;;;;;26.97;8.40;;;4.00;99.90;;;;;;10289496;28;20038;-82
2021/12/19 17:12:07;;;;;;;34.43;11.93;;;4.00;99.90;;;;;;10281428;28;20058;-82
2021/12/19 17:17:09;;;;;;;22.30;9.40;;;4.00;99.90;;;;;;10289258;28;20030;-85
2021/12/19 17:22:11;;;;;;;40.97;13.60;;;4.00;99.90;;;;;;10288908;28;20066;-84
2021/12/19 17:27:13;;;;;;;21.93;8.43;;;4.00;99.90;;;;;;10286230;28;20039;-82
2021/12/19 17:32:15;;;;;;;12.27;5.83;;;4.00;99.90;;;;;;10288368;28;20394;-87
2021/12/19 17:37:16;;;;;;;0.00;0.00;;;4.00;99.90;;;;;;10288823;28;20085;-86
2021/12/19 17:42:17;;;;;;;0.00;0.00;;;4.00;99.90;;;;;;10288869;28;20035;-84
2021/12/19 17:47:22;;;;;;;0.67;0.63;;;4.00;99.90;;;;;;10288331;28;20042;-83
2021/12/19 17:52:23;;;;;;;0.00;0.00;;;4.00;99.90;;;;;;10287058;28;20058;-84
2021/12/19 17:57:24;;;;;;;0.10;0.10;;;4.00;99.90;;;;;;10287255;28;20031;-85
2021/12/19 18:02:25;;;;;;;0.00;0.00;;;4.00;99.90;;;;;;10288189;28;20556;-85
2021/12/19 18:07:25;;;;;;;0.27;0.27;;;4.00;99.90;;;;;;10287354;28;20039;-83
2021/12/19 18:12:27;;;;;;;0.00;0.00;;;4.10;99.90;;;;;;10286915;28;20038;-85
2021/12/19 18:17:27;;;;;;;0.27;0.27;;;4.10;99.90;;;;;;10286354;28;20175;-82
2021/12/19 18:22:28;;;;;;;0.47;0.47;;;4.10;99.90;;;;;;10287333;28;20127;-82
2021/12/19 18:27:29;;;;;;;0.00;0.00;;;4.10;99.90;;;;;;10270352;28;20038;-84
2021/12/19 18:32:30;;;;;;;0.77;0.77;;;4.10;99.90;;;;;;10280130;28;20416;-84
2021/12/19 18:37:35;;;;;;;0.00;0.00;;;4.10;99.90;;;;;;10267569;28;20037;-82
2021/12/19 18:42:57;;;;;;;0.00;0.00;;;3.10;99.90;;;;;;10286253;28;20514;-81
2021/12/19 18:53:41;;;;;;;0.90;0.73;;;2.10;99.90;;;;;;10244885;28;20051;-81
2021/12/19 18:58:52;;;;;;;1.10;1.00;;;2.00;99.90;;;;;;10273781;28;20034;-82
2021/12/19 19:04:05;;;;;;;0.00;0.00;;;2.00;99.90;;;;;;10283772;28;20505;-81
2021/12/19 19:09:08;;;;;;;0.00;0.00;;;2.10;99.90;;;;;;10302715;28;20494;-81
2021/12/19 19:14:10;;;;;;;0.00;0.00;;;2.20;99.90;;;;;;10286663;28;20038;-83
2021/12/19 19:19:13;;;;;;;0.00;0.00;;;2.30;99.90;;;;;;10285392;28;20030;-82
2021/12/19 19:24:16;;;;;;;0.00;0.00;;;2.30;99.90;;;;;;10248866;28;20048;-82
2021/12/19 19:29:18;;;;;;;0.00;0.00;;;2.40;99.90;;;;;;10255831;28;20039;-85
2021/12/19 19:34:20;;;;;;;0.00;0.00;;;2.40;99.90;;;;;;10284051;28;20034;-83
2021/12/19 19:49:59;;;;;;;0.00;0.00;;;2.10;99.90;;;;;;10304627;28;20409;-84
2021/12/19 19:55:00;;;;;;;0.00;0.00;;;2.00;99.90;;;;;;10291707;28;20039;-87
2021/12/19 20:00:02;;;;;;;0.00;0.00;;;1.90;99.90;;;;;;10285233;28;21178;-85
2021/12/19 20:05:04;;;;;;;0.00;0.00;;;1.90;99.90;;;;;;10285464;28;20065;-85
2021/12/19 20:10:07;;;;;;;0.00;0.00;;;1.90;99.90;;;;;;10305248;28;20045;-84
2021/12/19 20:15:11;;;;;;;0.00;0.00;;;1.80;99.90;;;;;;10290470;28;20039;-85
2021/12/19 20:20:13;;;;;;;2.90;2.30;;;1.80;99.90;;;;;;10275715;28;20682;-84
2021/12/19 20:25:15;;;;;;;0.10;0.10;;;1.80;99.90;;;;;;10291503;28;20039;-84
2021/12/19 20:30:16;;;;;;;0.00;0.00;;;1.80;99.90;;;;;;10291761;28;20077;-84
2021/12/19 20:35:17;;;;;;;0.00;0.00;;;1.70;99.90;;;;;;10291319;28;20089;-85
2021/12/19 20:40:18;;;;;;;1.17;0.73;;;1.70;99.90;;;;;;10273408;28;20101;-85
2021/12/19 20:45:19;;;;;;;0.33;0.33;;;1.60;99.90;;;;;;10291272;28;20035;-84
2021/12/19 20:50:21;;;;;;;0.00;0.00;;;1.50;99.90;;;;;;10289788;28;20397;-84
2021/12/19 20:55:22;;;;;;;0.00;0.00;;;1.50;99.90;;;;;;10290569;28;20090;-85
2021/12/19 21:00:26;;;;;;;1.23;0.63;;;1.40;99.90;;;;;;10290360;28;20434;-85
2021/12/19 21:05:27;;;;;;;0.40;0.40;;;1.30;99.90;;;;;;10241118;29;20047;-86
2021/12/19 21:10:28;;;;;;;0.00;0.00;;;1.30;99.90;;;;;;10269956;28;20459;-83
2021/12/19 21:20:49;;;;;;;0.13;0.13;;;1.20;99.90;;;;;;10289559;28;20482;-83
2021/12/19 21:25:50;;;;;;;0.00;0.00;;;1.10;99.90;;;;;;10290224;28;20119;-86
2021/12/19 21:30:51;;;;;;;0.30;0.27;;;1.10;99.90;;;;;;10289033;28;20034;-85
2021/12/19 21:41:11;;;;;;;0.27;0.27;;;1.00;99.90;;;;;;10289439;28;20046;-84
2021/12/19 21:46:12;;;;;;;0.00;0.00;;;1.00;99.90;;;;;;10289221;28;20046;-85
2021/12/19 21:51:13;;;;;;;1.00;0.90;;;0.90;99.90;;;;;;10288837;28;20055;-86
2021/12/19 21:56:16;;;;;;;1.70;1.60;;;0.90;99.90;;;;;;10289362;28;20759;-83
2021/12/19 22:01:21;;;;;;;1.67;1.37;;;0.90;99.90;;;;;;10287136;28;20060;-83
2021/12/19 22:06:23;;;;;;;0.00;0.00;;;0.90;99.90;;;;;;10270159;28;20550;-85
2021/12/19 22:11:27;;;;;;;0.57;0.57;;;0.80;99.90;;;;;;10270835;28;20043;-85
2021/12/19 22:16:32;;;;;;;0.53;0.53;;;0.80;99.90;;;;;;10270955;28;20042;-85
2021/12/19 22:21:33;;;;;;;2.55;1.77;;;0.80;99.90;;;;;;10269851;28;20101;-83
2021/12/19 22:26:34;;;;;;;0.00;0.00;;;0.70;99.90;;;;;;10286304;28;20035;-84
2021/12/19 22:31:36;;;;;;;0.20;0.20;;;0.70;99.90;;;;;;10260440;28;20038;-84
2021/12/19 22:36:36;;;;;;;0.83;0.83;;;0.70;99.90;;;;;;10258550;28;20035;-85
2021/12/19 22:41:37;;;;;;;0.10;0.10;;;0.70;99.90;;;;;;10246928;28;20027;-84
2021/12/19 22:46:39;;;;;;;0.00;0.00;;;0.60;99.90;;;;;;10251333;28;20035;-85
2021/12/19 22:51:40;;;;;;;2.70;2.50;;;0.60;99.90;;;;;;10254829;28;20491;-83
2021/12/19 22:56:41;;;;;;;2.87;2.13;;;0.50;99.90;;;;;;10248492;28;20104;-84
2021/12/19 23:01:41;;;;;;;0.30;0.30;;;0.50;99.90;;;;;;10254665;28;20090;-82
2021/12/19 23:06:42;;;;;;;0.43;0.43;;;0.50;99.90;;;;;;10251303;28;20126;-84
2021/12/19 23:11:54;;;;;;;7.10;1.17;;;0.40;99.90;;;;;;10252338;28;20037;-85
2021/12/19 23:17:08;;;;;;;0.00;0.00;;;0.40;99.90;;;;;;10232862;28;20031;-87
2021/12/19 23:22:08;;;;;;;0.00;0.00;;;0.40;99.90;;;;;;10251248;28;20035;-85
2021/12/19 23:27:09;;;;;;;0.57;0.57;;;0.40;99.90;;;;;;10247492;28;20138;-85
2021/12/19 23:32:10;;;;;;;6.77;4.87;;;0.30;99.90;;;;;;10249238;28;20502;-84
2021/12/19 23:37:25;;;;;;;0.00;0.00;;;0.30;99.90;;;;;;10247344;28;20498;-84
2021/12/19 23:42:54;;;;;;;0.00;0.00;;;0.30;99.90;;;;;;10246582;29;20071;-84
2021/12/19 23:47:55;;;;;;;0.07;0.07;;;0.30;99.90;;;;;;10267857;28;20138;-84
2021/12/19 23:52:56;;;;;;;0.00;0.00;;;0.40;99.90;;;;;;10293291;28;20433;-85
2021/12/19 23:57:56;;;;;;;0.17;0.17;;;0.30;99.90;;;;;;10292826;28;20422;-83
